Time;durP1;ratioP1;P1;durP2;ratioP2;P2;SDS_P1;SDS_P2;PMS_P1;PMS_P2;Temp;Humidity;BMP_temperature;BMP_pressure;BME280_temperature;BME280_humidity;BME280_pressure;Samples;Min_cycle;Max_cycle;Signal;HPM_P1;HPM_P2
2021/11/02 00:01:05;;;;;;;0.93;0.82;;;;;;;5.52;100.00;94252.94;5029163;28;20787;-79
2021/11/02 00:03:32;;;;;;;2.03;1.00;;;;;;;5.48;100.00;94251.13;5025406;28;20048;-79
2021/11/02 00:05:58;;;;;;;1.70;0.90;;;;;;;5.29;100.00;94238.69;5028670;28;20111;-79
2021/11/02 00:08:24;;;;;;;0.88;0.75;;;;;;;5.33;100.00;94255.38;5028915;28;20049;-79
2021/11/02 00:10:49;;;;;;;0.77;0.73;;;;;;;5.41;100.00;94245.44;5029235;28;20667;-79
2021/11/02 00:13:17;;;;;;;0.77;0.77;;;;;;;5.38;100.00;94249.34;5028751;28;20045;-78
2021/11/02 00:15:44;;;;;;;2.42;1.00;;;;;;;5.26;100.00;94257.47;5023042;28;20048;-79
2021/11/02 00:18:11;;;;;;;1.15;1.00;;;;;;;5.49;100.00;94257.94;5022356;28;20162;-79
2021/11/02 00:20:38;;;;;;;2.80;0.85;;;;;;;5.49;100.00;94257.94;5029116;28;20041;-79
2021/11/02 00:23:06;;;;;;;1.40;0.93;;;;;;;5.41;100.00;94251.41;5027276;28;20045;-78
2021/11/02 00:25:32;;;;;;;1.13;0.90;;;;;;;5.33;100.00;94255.38;5029075;28;20506;-79
2021/11/02 00:28:00;;;;;;;2.28;1.08;;;;;;;5.38;100.00;94242.28;5026277;28;20034;-79
2021/11/02 00:30:26;;;;;;;1.40;0.95;;;;;;;5.42;100.00;94247.78;5028835;28;20465;-78
2021/11/02 00:32:55;;;;;;;1.05;0.70;;;;;;;5.41;100.00;94243.59;5024004;28;20045;-79
2021/11/02 00:35:23;;;;;;;1.17;0.80;;;;;;;5.43;100.00;94244.13;5028144;28;20793;-78
2021/11/02 00:37:49;;;;;;;2.33;0.80;;;;;;;5.38;100.00;94231.84;5024413;28;20077;-78
2021/11/02 00:40:17;;;;;;;2.45;1.00;;;;;;;5.43;100.00;94238.09;5027672;28;20038;-79
2021/11/02 00:42:54;;;;;;;1.58;1.00;;;;;;;5.45;100.00;94241.25;5026095;28;20045;-78
2021/11/02 00:45:31;;;;;;;0.90;0.73;;;;;;;5.40;100.00;94238.63;5028545;28;20045;-78
2021/11/02 00:47:59;;;;;;;0.70;0.70;;;;;;;5.32;100.00;94238.16;5027645;28;20071;-78
2021/11/02 00:50:27;;;;;;;2.05;0.90;;;;;;;5.30;100.00;94235.03;5028626;28;20076;-78
2021/11/02 00:52:53;;;;;;;0.90;0.90;;;;;;;5.31;100.00;94239.19;5027635;28;20120;-78
2021/11/02 00:55:18;;;;;;;0.85;0.80;;;;;;;5.34;100.00;94241.28;5027093;28;20117;-79
2021/11/02 00:57:44;;;;;;;2.65;1.10;;;;;;;5.26;100.00;94238.44;5012196;28;20049;-78
2021/11/02 01:00:12;;;;;;;1.38;0.80;;;;;;;5.34;100.00;94241.28;5018199;28;20846;-78
2021/11/02 01:02:38;;;;;;;2.00;1.00;;;;;;;5.27;100.00;94230.34;5009876;28;20513;-78
2021/11/02 01:05:06;;;;;;;0.90;0.70;;;;;;;5.33;100.00;94231.88;5023508;28;20049;-78
2021/11/02 01:07:32;;;;;;;2.00;0.98;;;;;;;5.27;100.00;94224.34;5028708;28;20042;-79
2021/11/02 01:10:00;;;;;;;2.22;1.10;;;;;;;5.30;100.00;94224.59;5028097;28;20107;-78
2021/11/02 01:12:25;;;;;;;1.75;0.88;;;;;;;5.28;100.00;94216.25;5027010;28;20119;-78
2021/11/02 01:14:52;;;;;;;1.30;1.20;;;;;;;5.24;100.00;94227.50;5025478;28;20045;-78
2021/11/02 01:17:17;;;;;;;2.00;1.08;;;;;;;5.27;100.00;94219.13;5027117;28;20560;-79
2021/11/02 01:19:43;;;;;;;1.35;0.95;;;;;;;5.28;100.00;94216.25;5027011;28;20041;-79
2021/11/02 01:22:08;;;;;;;2.20;1.20;;;;;;;5.30;100.00;94211.56;5026330;28;20411;-78
2021/11/02 01:24:34;;;;;;;1.00;0.90;;;;;;;5.21;100.00;94215.75;5027267;28;20041;-79
2021/11/02 01:26:59;;;;;;;0.98;0.98;;;;;;;5.25;100.00;94211.56;5016843;28;20619;-79
2021/11/02 01:29:25;;;;;;;2.15;1.20;;;;;;;5.25;100.00;94203.75;5022471;28;20422;-80
2021/11/02 01:31:50;;;;;;;1.88;1.00;;;;;;;5.17;100.00;94201.69;5034785;28;20037;-78
2021/11/02 01:34:16;;;;;;;2.05;1.30;;;;;;;5.29;100.00;94196.94;5011523;28;20057;-78
2021/11/02 01:36:42;;;;;;;3.05;1.30;;;;;;;5.31;100.00;94194.84;5027159;28;20502;-78
2021/11/02 01:39:07;;;;;;;1.17;1.08;;;;;;;5.28;100.00;94195.38;5026887;28;20068;-78
2021/11/02 01:41:35;;;;;;;1.20;1.10;;;;;;;5.28;100.00;94195.38;5026836;28;20045;-79
2021/11/02 01:44:02;;;;;;;2.30;1.20;;;;;;;5.26;100.00;94189.66;5019894;28;20041;-78
2021/11/02 01:46:31;;;;;;;3.95;1.30;;;;;;;5.30;100.00;94193.31;5021865;28;20042;-79
2021/11/02 01:48:59;;;;;;;2.95;1.40;;;;;;;5.24;100.00;94189.13;5008548;28;20046;-79
2021/11/02 01:51:27;;;;;;;1.85;1.20;;;;;;;5.23;100.00;94187.59;5021272;28;20042;-78
2021/11/02 01:53:53;;;;;;;1.88;1.30;;;;;;;5.19;100.00;94181.34;5025416;28;20049;-78
2021/11/02 01:56:21;;;;;;;2.53;1.15;;;;;;;5.19;100.00;94186.56;5030298;28;20042;-79
2021/11/02 01:58:50;;;;;;;2.88;1.23;;;;;;;5.14;100.00;94199.63;5029066;28;20041;-79
2021/11/02 02:01:36;;;;;;;1.67;1.30;;;;;;;5.06;100.00;94192.34;5029893;28;20041;-79
2021/11/02 02:04:11;;;;;;;1.98;1.38;;;;;;;5.10;100.00;94201.19;5023967;28;20045;-79
2021/11/02 02:07:13;;;;;;;2.17;1.30;;;;;;;5.12;100.00;94205.09;5025610;28;20038;-78
2021/11/02 02:10:02;;;;;;;3.10;1.60;;;;;;;5.00;100.00;94210.63;5013084;28;20042;-79
2021/11/02 02:12:48;;;;;;;1.55;1.23;;;;;;;4.96;100.00;94199.16;5020116;28;20041;-79
2021/11/02 02:15:20;;;;;;;1.20;1.10;;;;;;;4.99;100.00;94193.41;5030656;28;20041;-78
2021/11/02 02:18:08;;;;;;;2.83;1.42;;;;;;;4.90;100.00;94184.59;5031105;28;20034;-79
2021/11/02 02:21:08;;;;;;;1.33;1.20;;;;;;;4.91;100.00;94180.91;5030573;28;20044;-79
2021/11/02 02:24:00;;;;;;;1.55;1.30;;;;;;;4.87;100.00;94177.28;5030232;28;20677;-78
2021/11/02 02:26:54;;;;;;;2.83;1.48;;;;;;;4.83;100.00;94179.63;5023668;28;20045;-79
2021/11/02 02:29:23;;;;;;;4.30;1.20;;;;;;;4.78;100.00;94186.69;5023293;28;20046;-79
2021/11/02 02:31:51;;;;;;;2.63;1.55;;;;;;;4.69;100.00;94174.19;5029288;28;20041;-78
2021/11/02 02:34:18;;;;;;;3.67;1.30;;;;;;;4.68;100.00;94167.44;5025527;28;20049;-79
2021/11/02 02:36:46;;;;;;;3.03;1.50;;;;;;;4.68;100.00;94166.66;5017654;28;20129;-78
2021/11/02 02:39:14;;;;;;;3.13;1.20;;;;;;;4.66;100.00;94164.31;5029622;28;20033;-80
2021/11/02 02:41:41;;;;;;;3.42;1.60;;;;;;;4.77;100.00;94172.09;5029402;28;20048;-78
2021/11/02 02:44:10;;;;;;;3.22;1.67;;;;;;;4.74;100.00;94175.22;5024810;28;20095;-79
2021/11/02 02:46:38;;;;;;;3.90;1.52;;;;;;;4.74;100.00;94172.63;5030265;28;20041;-79
2021/11/02 02:49:05;;;;;;;4.18;1.67;;;;;;;4.71;100.00;94165.34;5028473;28;20220;-79
2021/11/02 02:51:34;;;;;;;3.42;1.30;;;;;;;4.69;100.00;94163.78;5028171;28;20049;-79
2021/11/02 02:54:01;;;;;;;1.48;1.30;;;;;;;4.63;100.00;94170.06;5028535;28;20061;-80
2021/11/02 02:56:29;;;;;;;1.77;1.40;;;;;;;4.68;100.00;94167.44;5021110;28;20613;-79
2021/11/02 02:59:01;;;;;;;2.65;1.50;;;;;;;4.65;100.00;94173.16;5030341;28;20502;-78
2021/11/02 03:01:27;;;;;;;1.90;1.27;;;;;;;4.61;100.00;94172.16;5029143;28;20056;-79
2021/11/02 03:04:10;;;;;;;3.97;1.50;;;;;;;4.57;100.00;94165.91;5028855;28;20042;-79
2021/11/02 03:06:42;;;;;;;5.15;1.70;;;;;;;4.59;100.00;94174.22;5010405;28;20045;-79
2021/11/02 03:09:08;;;;;;;1.30;1.20;;;;;;;4.54;100.00;94166.44;5037498;28;20049;-79
2021/11/02 03:11:35;;;;;;;2.92;1.58;;;;;;;4.49;100.00;94179.47;5026763;28;20048;-79
2021/11/02 03:14:07;;;;;;;3.67;1.48;;;;;;;4.45;100.00;94173.22;5022454;28;20069;-78
2021/11/02 03:16:50;;;;;;;3.65;1.60;;;;;;;4.43;100.00;94176.06;5019233;28;20048;-79
2021/11/02 03:45:02;;;;;;;6.53;1.58;;;;;;;4.36;100.00;94169.59;5028214;28;20049;-79
2021/11/02 03:55:36;;;;;;;5.70;1.40;;;;;;;4.29;100.00;94175.81;5029022;28;19925;-79
2021/11/02 03:58:12;;;;;;;2.97;1.50;;;;;;;4.25;100.00;94167.00;5022836;28;20049;-78
2021/11/02 04:01:17;;;;;;;3.88;1.23;;;;;;;4.28;100.00;94163.88;5016165;28;20115;-79
2021/11/02 05:10:39;;;;;;;5.03;2.00;;;;;;;3.50;100.00;94190.88;5027924;28;20110;-79
2021/11/02 05:51:42;;;;;;;2.53;1.27;;;;;;;3.95;100.00;94192.00;5019506;28;20049;-79
2021/11/02 05:54:32;;;;;;;3.85;1.40;;;;;;;3.97;100.00;94189.91;5029481;28;20498;-79
2021/11/02 05:59:48;;;;;;;1.65;1.30;;;;;;;4.07;100.00;94188.34;5030338;28;20045;-79
2021/11/02 06:30:04;;;;;;;4.43;1.38;;;;;;;4.48;100.00;94198.72;5029954;28;20414;-79
2021/11/02 06:32:34;;;;;;;2.42;1.30;;;;;;;4.51;100.00;94193.00;5028674;28;20056;-79
2021/11/02 06:43:05;;;;;;;1.10;1.00;;;;;;;4.74;100.00;94196.09;5029987;28;20881;-80
2021/11/02 07:16:30;;;;;;;1.15;1.05;;;;;;;5.26;100.00;94218.34;5022956;28;20557;-79
2021/11/02 07:19:02;;;;;;;2.80;0.95;;;;;;;5.36;100.00;94223.53;5028716;28;20041;-79
2021/11/02 07:24:35;;;;;;;2.28;1.08;;;;;;;5.37;100.00;94225.09;4996266;28;20080;-77
2021/11/02 08:47:40;;;;;;;1.63;0.90;;;;;;;6.79;100.00;94224.69;5026876;28;20057;-80
2021/11/02 08:50:11;;;;;;;2.28;1.38;;;;;;;6.90;100.00;94221.69;5017180;28;20103;-80
2021/11/02 08:52:39;;;;;;;1.98;1.02;;;;;;;7.11;97.49;94224.88;5024474;28;20049;-79
2021/11/02 08:55:07;;;;;;;1.85;1.00;;;;;;;7.00;98.45;94225.25;5026379;28;20057;-79
2021/11/02 08:57:33;;;;;;;1.00;0.77;;;;;;;7.15;96.03;94206.00;5024014;28;20049;-79
2021/11/02 08:59:59;;;;;;;3.42;1.00;;;;;;;7.14;97.07;94220.91;5019973;28;20077;-79
2021/11/02 09:02:33;;;;;;;5.35;1.15;;;;;;;7.23;98.22;94218.47;5032583;28;20041;-80
2021/11/02 09:05:13;;;;;;;3.45;1.00;;;;;;;7.26;98.08;94217.91;5024484;28;20034;-80
2021/11/02 09:07:40;;;;;;;1.83;0.95;;;;;;;7.51;91.31;94213.41;5030075;28;20049;-80
2021/11/02 09:10:11;;;;;;;4.70;1.30;;;;;;;7.54;94.19;94215.47;5027783;28;20049;-81
2021/11/02 09:12:40;;;;;;;1.60;0.68;;;;;;;7.61;92.41;94218.50;5030867;28;20064;-79
2021/11/02 09:15:07;;;;;;;3.33;1.20;;;;;;;7.71;92.78;94218.38;5036413;28;20507;-80
2021/11/02 09:17:35;;;;;;;2.33;0.77;;;;;;;7.79;92.63;94215.13;5019770;28;20109;-79
2021/11/02 09:20:03;;;;;;;3.20;0.93;;;;;;;7.87;91.67;94216.31;5049340;28;20038;-80
2021/11/02 09:22:31;;;;;;;2.05;1.20;;;;;;;7.90;91.55;94209.75;5035894;28;20049;-80
2021/11/02 09:24:58;;;;;;;3.20;1.13;;;;;;;7.88;89.51;94220.50;5033446;28;20053;-78
2021/11/02 09:27:24;;;;;;;4.07;1.27;;;;;;;7.78;90.44;94208.31;5031494;28;20042;-78
2021/11/02 09:29:51;;;;;;;2.33;0.80;;;;;;;7.89;92.01;94213.44;5047630;28;20525;-79
2021/11/02 09:32:17;;;;;;;3.38;1.10;;;;;;;8.58;87.40;94218.19;5031217;28;20042;-79
2021/11/02 09:34:43;;;;;;;2.35;1.17;;;;;;;10.55;81.33;94212.09;5032158;28;20053;-78
2021/11/02 09:37:25;;;;;;;6.78;1.02;;;;;;;11.60;75.71;94207.25;5027676;28;20038;-79
2021/11/02 09:39:52;;;;;;;1.85;1.05;;;;;;;11.66;71.08;94205.25;5026857;28;20049;-78
2021/11/02 09:42:48;;;;;;;3.83;1.10;;;;;;;12.29;72.40;94205.78;5023083;28;20046;-80
2021/11/02 09:45:55;;;;;;;4.20;0.98;;;;;;;12.68;68.44;94205.88;5025969;28;20048;-78
2021/11/02 09:48:58;;;;;;;5.13;1.10;;;;;;;12.77;65.19;94203.22;5031979;28;20153;-78
2021/11/02 09:51:42;;;;;;;5.35;1.20;;;;;;;12.50;64.61;94205.16;5028253;28;20052;-78
2021/11/02 09:54:10;;;;;;;2.50;1.00;;;;;;;11.93;66.80;94209.50;5029206;28;20053;-78
2021/11/02 09:56:50;;;;;;;5.25;1.02;;;;;;;11.59;65.47;94204.94;5042690;28;20052;-78
2021/11/02 09:59:22;;;;;;;2.15;0.73;;;;;;;13.36;66.85;94197.28;5030068;28;20057;-78
2021/11/02 10:02:25;;;;;;;2.28;0.88;;;;;;;13.84;60.15;94192.66;5033920;28;20037;-80
2021/11/02 10:05:32;;;;;;;3.03;0.95;;;;;;;13.14;63.75;94182.44;5028119;28;20048;-77
2021/11/02 10:08:18;;;;;;;4.32;1.20;;;;;;;13.85;59.30;94194.22;5031065;28;20049;-76
2021/11/02 10:11:13;;;;;;;2.22;0.80;;;;;;;12.52;63.99;94187.13;5023469;28;20428;-76
2021/11/02 10:13:51;;;;;;;1.65;0.95;;;;;;;13.82;59.81;94181.59;5026183;28;20042;-76
2021/11/02 10:16:31;;;;;;;1.95;1.00;;;;;;;14.82;59.29;94186.22;5028548;28;20080;-77
2021/11/02 10:19:40;;;;;;;3.55;1.10;;;;;;;15.11;55.76;94184.50;5028568;28;20050;-75
2021/11/02 10:22:39;;;;;;;2.17;1.00;;;;;;;14.40;56.09;94183.66;5029845;28;20530;-75
2021/11/02 10:25:05;;;;;;;2.45;1.20;;;;;;;15.04;60.81;94185.81;5027066;28;20053;-76
2021/11/02 10:27:59;;;;;;;1.98;1.10;;;;;;;15.45;58.12;94177.22;5026849;28;20041;-76
2021/11/02 10:30:34;;;;;;;1.80;0.80;;;;;;;16.70;54.02;94179.97;5012828;28;20092;-77
2021/11/02 10:33:22;;;;;;;3.05;1.02;;;;;;;16.30;49.45;94177.38;5028682;28;20072;-75
2021/11/02 10:36:17;;;;;;;2.58;1.10;;;;;;;16.87;48.31;94167.47;5027757;28;20033;-75
2021/11/02 10:39:07;;;;;;;4.18;1.27;;;;;;;16.34;52.19;94179.03;5029788;28;20441;-76
2021/11/02 10:41:41;;;;;;;3.50;1.20;;;;;;;16.84;50.12;94173.44;5022383;28;20669;-75
2021/11/02 10:44:36;;;;;;;2.70;1.08;;;;;;;15.49;50.47;94168.25;5026680;28;20046;-76
2021/11/02 10:47:09;;;;;;;;;;;;;;;15.57;50.25;94166.59;5020377;28;20042;-74
2021/11/02 10:50:03;;;;;;;3.50;0.95;;;;;;;14.52;52.11;94186.31;5030152;28;19920;-76
2021/11/02 10:52:36;;;;;;;4.47;1.00;;;;;;;14.18;54.90;94177.63;5029483;28;20067;-75
2021/11/02 10:55:32;;;;;;;2.05;1.13;;;;;;;15.83;55.44;94170.78;5028519;28;20041;-74
2021/11/02 10:58:17;;;;;;;1.67;0.90;;;;;;;16.30;50.49;94172.84;5027815;28;20045;-75
2021/11/02 11:00:46;;;;;;;5.05;1.08;;;;;;;16.13;51.68;94173.13;5029667;28;20099;-75
2021/11/02 11:03:16;;;;;;;2.05;1.10;;;;;;;15.90;50.75;94170.97;5028940;28;20049;-75
2021/11/02 11:05:51;;;;;;;3.80;0.80;;;;;;;14.72;50.75;94174.16;5025780;28;20041;-75
2021/11/02 11:08:19;;;;;;;5.30;0.98;;;;;;;14.00;57.11;94180.38;5019168;28;20044;-75
2021/11/02 11:10:49;;;;;;;1.40;1.05;;;;;;;13.62;58.27;94181.28;5029556;28;20041;-75
2021/11/02 11:13:19;;;;;;;3.08;1.00;;;;;;;12.71;54.66;94183.38;5025912;28;20049;-76
2021/11/02 11:15:47;;;;;;;3.83;0.77;;;;;;;12.67;56.83;94177.16;5021042;28;20042;-75
2021/11/02 11:18:21;;;;;;;5.15;1.20;;;;;;;12.48;57.85;94175.66;5019172;28;20038;-75
2021/11/02 11:20:48;;;;;;;2.95;1.25;;;;;;;12.77;57.31;94182.88;5018979;28;20044;-74
2021/11/02 11:23:14;;;;;;;4.32;1.25;;;;;;;14.04;55.55;94178.66;5028184;28;20037;-75
2021/11/02 11:25:56;;;;;;;5.80;1.38;;;;;;;13.80;54.57;94175.88;5029053;28;20505;-77
2021/11/02 11:28:23;;;;;;;2.20;0.90;;;;;;;13.10;55.92;94168.31;5010724;28;20427;-78
2021/11/02 11:30:54;;;;;;;2.95;0.93;;;;;;;12.54;55.25;94184.97;5015250;28;20044;-76
2021/11/02 11:33:20;;;;;;;3.33;1.05;;;;;;;12.16;58.16;94180.34;5037858;28;20045;-76
2021/11/02 11:35:49;;;;;;;1.42;0.70;;;;;;;11.69;58.45;94177.50;5027325;28;20042;-75
2021/11/02 11:38:15;;;;;;;5.75;1.13;;;;;;;11.32;63.00;94179.59;5024946;28;20065;-76
2021/11/02 11:40:43;;;;;;;3.53;0.93;;;;;;;11.13;60.09;94177.25;5021737;28;20069;-75
2021/11/02 11:43:11;;;;;;;2.92;1.10;;;;;;;10.86;61.66;94179.78;5043343;28;20041;-75
2021/11/02 11:45:40;;;;;;;3.13;0.98;;;;;;;10.46;66.62;94181.56;5028417;28;20498;-75
2021/11/02 11:48:23;;;;;;;2.75;1.08;;;;;;;10.38;65.29;94201.47;5027662;28;20046;-76
2021/11/02 11:50:49;;;;;;;3.50;1.00;;;;;;;10.11;67.64;94205.75;5024665;28;20079;-76
2021/11/02 11:53:20;;;;;;;3.80;1.00;;;;;;;9.73;70.68;94224.44;5018183;28;20045;-75
2021/11/02 11:56:07;;;;;;;2.75;0.98;;;;;;;9.15;77.84;94220.59;5020077;28;20128;-76
2021/11/02 11:58:33;;;;;;;5.47;1.10;;;;;;;8.96;80.26;94223.31;5023142;28;20091;-76
2021/11/02 12:01:07;;;;;;;4.38;1.20;;;;;;;8.79;81.85;94214.16;5048416;28;20040;-77
2021/11/02 12:03:33;;;;;;;2.75;0.88;;;;;;;8.90;82.32;94219.22;5030131;28;20052;-76
2021/11/02 12:06:14;;;;;;;2.95;1.67;;;;;;;8.94;85.87;94220.19;5025844;28;20065;-76
2021/11/02 12:08:52;;;;;;;2.55;0.93;;;;;;;8.89;88.13;94201.91;5024313;28;20376;-77
2021/11/02 12:11:20;;;;;;;4.13;1.40;;;;;;;9.07;81.92;94205.53;5029496;28;20050;-77
2021/11/02 12:13:49;;;;;;;2.08;1.10;;;;;;;9.15;85.86;94210.88;5029747;28;20046;-76
2021/11/02 12:16:24;;;;;;;2.45;1.23;;;;;;;9.52;82.94;94209.13;5028331;28;20054;-77
2021/11/02 12:19:03;;;;;;;4.68;1.40;;;;;;;9.46;84.28;94215.53;5027613;28;20057;-76
2021/11/02 12:21:31;;;;;;;2.40;1.23;;;;;;;9.37;84.46;94206.78;5026318;28;20542;-76
2021/11/02 12:24:06;;;;;;;5.32;1.20;;;;;;;9.48;81.70;94210.78;5021296;28;20080;-76
2021/11/02 12:26:49;;;;;;;4.22;1.20;;;;;;;9.27;85.25;94222.75;5029001;28;20049;-77
2021/11/02 12:29:21;;;;;;;1.48;1.02;;;;;;;9.28;81.76;94219.03;5030115;28;20041;-76
2021/11/02 12:31:59;;;;;;;4.47;1.52;;;;;;;9.35;79.42;94224.66;5022401;28;20050;-76
2021/11/02 12:34:29;;;;;;;5.80;1.30;;;;;;;9.23;80.37;94206.78;5027335;28;20045;-76
2021/11/02 12:36:58;;;;;;;1.95;1.20;;;;;;;9.22;80.39;94214.97;5027686;28;20033;-76
2021/11/02 12:39:28;;;;;;;3.53;1.50;;;;;;;9.11;80.89;94220.41;5027116;28;20076;-77
2021/11/02 12:41:57;;;;;;;1.95;1.08;;;;;;;9.19;79.92;94211.88;5027215;28;20071;-77
2021/11/02 12:44:27;;;;;;;2.17;1.10;;;;;;;9.09;79.10;94211.25;5025208;28;20536;-78
2021/11/02 12:46:53;;;;;;;2.13;1.15;;;;;;;8.91;83.88;94215.53;5026849;28;20063;-76
2021/11/02 12:49:28;;;;;;;3.65;1.83;;;;;;;9.07;82.39;94219.44;5027923;28;20037;-77
2021/11/02 12:52:00;;;;;;;1.48;1.10;;;;;;;9.05;79.69;94221.56;5025729;28;20037;-75
2021/11/02 12:54:26;;;;;;;3.67;1.23;;;;;;;8.87;80.50;94225.06;5025596;28;20041;-76
2021/11/02 12:57:01;;;;;;;4.63;1.20;;;;;;;8.99;80.72;94222.72;5023094;28;20037;-75
2021/11/02 12:59:35;;;;;;;4.35;1.35;;;;;;;8.92;81.16;94217.88;5019842;28;20033;-76
2021/11/02 13:02:20;;;;;;;5.35;1.17;;;;;;;8.85;82.73;94212.22;5026294;28;20464;-77
2021/11/02 13:04:50;;;;;;;4.93;1.10;;;;;;;8.95;82.88;94216.50;5026733;28;20872;-76
2021/11/02 13:07:15;;;;;;;5.75;1.25;;;;;;;8.94;83.98;94207.84;5023014;28;20045;-77
2021/11/02 13:09:43;;;;;;;2.50;1.13;;;;;;;8.91;83.86;94205.03;5022409;28;20061;-76
2021/11/02 13:12:11;;;;;;;5.22;1.00;;;;;;;8.92;82.01;94201.34;5032994;28;20057;-76
2021/11/02 13:14:43;;;;;;;3.55;1.10;;;;;;;9.01;82.83;94204.84;5029805;28;20125;-77
2021/11/02 13:17:11;;;;;;;2.72;1.25;;;;;;;8.95;83.87;94206.00;5030408;28;20125;-77
2021/11/02 13:19:40;;;;;;;3.20;1.45;;;;;;;8.96;84.13;94204.94;5028078;28;20465;-77
2021/11/02 13:22:23;;;;;;;2.80;1.10;;;;;;;9.05;82.55;94203.22;5029304;28;20080;-77
2021/11/02 13:25:09;;;;;;;2.58;1.10;;;;;;;9.15;83.33;94210.88;5030098;28;20037;-77
2021/11/02 13:27:46;;;;;;;3.15;1.02;;;;;;;9.13;86.49;94207.00;5029969;28;20103;-77
2021/11/02 13:30:38;;;;;;;1.70;1.02;;;;;;;9.21;81.89;94208.16;5028158;28;20041;-76
2021/11/02 13:33:13;;;;;;;5.13;1.17;;;;;;;9.19;81.64;94206.63;5032133;28;20053;-77
2021/11/02 13:35:57;;;;;;;2.55;0.90;;;;;;;9.39;83.62;94214.38;5033540;28;20753;-74
2021/11/02 13:38:40;;;;;;;1.00;0.60;;;;;;;9.35;82.81;94209.72;5026940;28;20045;-76
2021/11/02 13:41:20;;;;;;;1.50;0.90;;;;;;;9.48;80.91;94218.66;5012579;28;20757;-76
2021/11/02 13:43:50;;;;;;;3.05;1.20;;;;;;;9.44;79.78;94207.19;5018956;28;20718;-75
2021/11/02 13:46:23;;;;;;;2.80;0.90;;;;;;;9.42;80.38;94209.31;5026162;28;20042;-75
2021/11/02 13:48:50;;;;;;;1.02;0.80;;;;;;;9.43;79.02;94205.63;5030410;28;20120;-75
2021/11/02 13:51:17;;;;;;;2.08;1.05;;;;;;;9.35;77.68;94214.16;5027511;28;20116;-76
2021/11/02 13:53:44;;;;;;;3.60;1.00;;;;;;;9.31;78.54;94207.94;5022022;28;20445;-76
2021/11/02 13:56:13;;;;;;;5.78;1.30;;;;;;;9.29;77.32;94210.09;5030133;28;20033;-75
2021/11/02 13:58:39;;;;;;;0.60;0.60;;;;;;;9.32;75.28;94209.50;5029439;28;20454;-75
2021/11/02 14:01:12;;;;;;;0.88;0.70;;;;;;;9.26;77.81;94210.69;5030569;28;20052;-75
2021/11/02 14:03:45;;;;;;;3.95;0.65;;;;;;;9.35;77.37;94208.91;5028871;28;20072;-76
2021/11/02 14:06:14;;;;;;;2.38;0.80;;;;;;;9.31;77.16;94210.56;5030582;28;20863;-74
2021/11/02 14:08:40;;;;;;;2.63;0.63;;;;;;;9.42;74.56;94205.91;5015997;28;20522;-75
2021/11/02 14:11:24;;;;;;;2.05;0.70;;;;;;;9.34;73.88;94191.63;5031556;28;20042;-77
2021/11/02 14:13:50;;;;;;;0.98;0.65;;;;;;;9.08;75.33;94205.25;5023914;28;20570;-77
2021/11/02 14:16:28;;;;;;;1.52;0.50;;;;;;;9.28;73.50;94198.03;5023136;28;20045;-77
2021/11/02 14:18:53;;;;;;;1.58;0.70;;;;;;;9.22;72.89;94205.22;5034875;28;20037;-80
2021/11/02 14:21:43;;;;;;;1.25;0.73;;;;;;;9.11;73.93;94212.53;5027523;28;20475;-79
2021/11/02 14:24:09;;;;;;;0.82;0.70;;;;;;;9.14;73.93;94201.44;5025623;28;20041;-76
2021/11/02 14:26:50;;;;;;;1.83;1.10;;;;;;;9.09;74.69;94201.53;5032797;28;20761;-77
2021/11/02 14:29:16;;;;;;;1.98;0.70;;;;;;;9.09;75.00;94201.53;5016457;28;20044;-76
2021/11/02 14:31:45;;;;;;;0.93;0.70;;;;;;;9.01;74.34;94203.00;5022826;28;20045;-77
2021/11/02 14:34:26;;;;;;;1.05;0.82;;;;;;;9.06;75.05;94202.13;5021614;28;20060;-77
2021/11/02 14:37:27;;;;;;;1.63;1.02;;;;;;;9.03;74.84;94197.47;5033473;28;20052;-77
2021/11/02 14:40:00;;;;;;;1.27;0.80;;;;;;;9.05;74.87;94203.22;5021232;28;20061;-77
2021/11/02 14:42:35;;;;;;;2.47;0.93;;;;;;;8.84;74.69;94200.16;5030165;28;20045;-76
2021/11/02 14:45:00;;;;;;;0.50;0.50;;;;;;;8.99;73.04;94201.72;5035389;28;20050;-78
2021/11/02 14:47:37;;;;;;;1.55;0.80;;;;;;;8.97;72.92;94193.38;5051584;28;20041;-77
2021/11/02 14:50:23;;;;;;;0.90;0.90;;;;;;;8.93;73.86;94192.41;5026652;28;20042;-79
2021/11/02 14:52:50;;;;;;;1.42;0.98;;;;;;;8.91;72.55;94199.81;5021029;28;20088;-77
2021/11/02 14:55:48;;;;;;;1.17;0.70;;;;;;;8.79;73.21;94203.66;5022997;28;20046;-76
2021/11/02 14:58:39;;;;;;;0.98;0.70;;;;;;;8.77;74.54;94205.78;5033334;28;20042;-77
2021/11/02 15:01:09;;;;;;;1.25;0.90;;;;;;;8.70;74.32;94210.63;5030802;28;20042;-77
2021/11/02 15:03:35;;;;;;;1.40;0.93;;;;;;;8.59;77.27;94214.50;5029957;28;20053;-77
2021/11/02 15:06:12;;;;;;;1.38;0.95;;;;;;;8.67;74.52;94205.97;5031397;28;20160;-77
2021/11/02 15:08:42;;;;;;;2.35;0.95;;;;;;;8.64;74.04;94211.78;5023829;28;20045;-76
2021/11/02 15:11:16;;;;;;;2.63;0.85;;;;;;;8.64;73.86;94211.78;5028711;28;20057;-76
2021/11/02 15:13:53;;;;;;;1.98;1.15;;;;;;;8.48;76.70;94209.41;5021613;28;20045;-75
2021/11/02 15:16:19;;;;;;;3.50;1.13;;;;;;;8.39;75.27;94221.63;5024587;28;20064;-76
2021/11/02 15:18:47;;;;;;;1.08;0.80;;;;;;;8.38;75.50;94230.53;5026629;28;20730;-76
2021/11/02 15:21:28;;;;;;;1.90;0.95;;;;;;;8.37;77.26;94228.97;5027505;28;20057;-76
2021/11/02 15:23:54;;;;;;;3.22;1.40;;;;;;;8.25;76.24;94233.88;5024331;28;20056;-76
2021/11/02 15:26:20;;;;;;;1.08;0.95;;;;;;;8.15;76.64;94227.72;5020644;28;20057;-76
2021/11/02 15:28:49;;;;;;;2.65;1.20;;;;;;;8.06;77.92;94218.97;5028369;28;20041;-76
2021/11/02 15:31:22;;;;;;;2.70;1.30;;;;;;;7.83;82.58;94225.03;5018531;28;20057;-77
2021/11/02 15:33:51;;;;;;;2.22;1.20;;;;;;;7.67;83.86;94233.13;5043690;28;20076;-76
2021/11/02 15:36:22;;;;;;;2.15;1.23;;;;;;;7.51;85.59;94240.34;5028867;28;20128;-76
2021/11/02 15:39:02;;;;;;;1.45;1.10;;;;;;;7.30;86.90;94245.06;5016416;28;20059;-77
2021/11/02 15:41:29;;;;;;;1.55;1.30;;;;;;;7.07;89.50;94247.41;5029279;28;20056;-77
2021/11/02 15:44:01;;;;;;;2.42;1.00;;;;;;;6.87;90.34;94242.38;5028491;28;20069;-77
2021/11/02 15:46:40;;;;;;;1.92;1.27;;;;;;;6.81;90.65;94253.94;5012632;28;20037;-77
2021/11/02 15:49:08;;;;;;;2.80;1.33;;;;;;;6.59;92.82;94249.94;5022961;28;20041;-77
2021/11/02 15:51:50;;;;;;;1.70;1.10;;;;;;;6.73;91.79;94253.47;5028387;28;20491;-77
2021/11/02 15:54:16;;;;;;;3.42;1.10;;;;;;;6.59;93.15;94258.56;5026682;28;20045;-77
2021/11/02 15:56:42;;;;;;;5.07;1.48;;;;;;;6.39;94.36;94264.75;5028068;28;20037;-76
2021/11/02 15:59:10;;;;;;;3.40;1.73;;;;;;;6.36;93.36;94265.25;5026756;28;20045;-75
2021/11/02 16:01:43;;;;;;;1.52;1.13;;;;;;;6.59;91.17;94268.22;5025353;28;20041;-76
2021/11/02 16:04:23;;;;;;;1.75;1.30;;;;;;;6.66;89.37;94268.69;5008921;28;20057;-75
2021/11/02 16:06:54;;;;;;;2.65;1.40;;;;;;;6.70;90.24;94274.94;5021384;28;20033;-76
2021/11/02 16:09:20;;;;;;;2.00;1.40;;;;;;;6.90;88.19;94273.22;5026239;28;20165;-77
2021/11/02 16:11:48;;;;;;;4.05;1.10;;;;;;;6.89;87.94;94266.41;5032509;28;20516;-75
2021/11/02 16:14:19;;;;;;;2.40;1.23;;;;;;;6.97;87.00;94271.06;5020372;28;20060;-76
2021/11/02 16:16:51;;;;;;;2.80;1.30;;;;;;;6.82;88.29;94281.66;5015008;28;20041;-75
2021/11/02 16:19:18;;;;;;;2.67;1.27;;;;;;;6.88;86.67;94281.34;5026774;28;20045;-76
2021/11/02 16:21:46;;;;;;;3.10;1.33;;;;;;;7.12;84.60;94280.56;5026663;28;20045;-75
2021/11/02 16:24:12;;;;;;;3.05;1.20;;;;;;;7.20;83.23;94276.59;5027826;28;20582;-75
2021/11/02 16:26:41;;;;;;;2.08;1.20;;;;;;;7.19;83.35;94286.25;5027057;28;20120;-77
2021/11/02 16:29:16;;;;;;;1.73;1.30;;;;;;;7.27;82.08;94282.28;5028618;28;20503;-76
2021/11/02 16:31:42;;;;;;;2.70;1.60;;;;;;;7.23;82.14;94281.25;5027456;28;20041;-75
2021/11/02 16:34:21;;;;;;;4.80;1.85;;;;;;;7.22;82.20;94287.53;5026445;28;20514;-75
2021/11/02 16:36:47;;;;;;;9.10;3.40;;;;;;;7.25;82.71;94289.59;5027834;28;20119;-76
2021/11/02 16:39:13;;;;;;;10.38;3.45;;;;;;;7.28;83.82;94291.66;5019458;28;20494;-75
2021/11/02 16:41:58;;;;;;;5.43;2.40;;;;;;;7.13;84.12;94291.84;5017564;28;20091;-76
2021/11/02 16:44:31;;;;;;;2.13;1.40;;;;;;;7.24;81.56;94282.81;5030328;28;20042;-76
2021/11/02 16:47:19;;;;;;;2.13;1.52;;;;;;;7.24;83.02;94282.81;5016306;28;20560;-75
2021/11/02 16:49:45;;;;;;;5.18;2.70;;;;;;;7.29;82.14;94291.38;5032780;28;20049;-75
2021/11/02 16:52:25;;;;;;;3.03;1.65;;;;;;;7.23;81.84;94286.50;5021108;28;20052;-76
2021/11/02 16:54:50;;;;;;;1.92;1.30;;;;;;;7.23;81.67;94291.72;5032427;28;20042;-76
2021/11/02 16:57:19;;;;;;;1.50;1.10;;;;;;;7.20;82.25;94297.53;5039619;28;20061;-74